Time;durP1;ratioP1;P1;durP2;ratioP2;P2;SDS_P1;SDS_P2;PMS_P1;PMS_P2;Temp;Humidity;BMP_temperature;BMP_pressure;BME280_temperature;BME280_humidity;BME280_pressure;Samples;Min_cycle;Max_cycle;Signal;HPM_P1;HPM_P2
2021/08/16 00:00:22;;;;;;;12.30;7.03;;;;;;;21.23;60.23;101555.69;5093639;28;20032;-62
2021/08/16 00:02:47;;;;;;;11.57;7.18;;;;;;;21.23;60.52;101555.69;5097674;28;20036;-62
2021/08/16 00:05:14;;;;;;;9.60;6.90;;;;;;;21.22;60.38;101551.38;5114542;28;20031;-62
2021/08/16 00:07:43;;;;;;;10.77;7.50;;;;;;;21.23;60.46;101555.69;5100113;28;20035;-62
2021/08/16 00:10:11;;;;;;;12.13;7.50;;;;;;;21.23;60.21;101556.50;5087037;28;20039;-62
2021/08/16 00:12:37;;;;;;;12.43;7.68;;;;;;;21.22;60.20;101549.53;5108206;28;20040;-62
2021/08/16 00:15:03;;;;;;;12.43;8.00;;;;;;;21.21;60.52;101557.72;5093865;28;20463;-62
2021/08/16 00:17:28;;;;;;;11.23;7.57;;;;;;;21.23;60.21;101558.34;5106366;28;20455;-62
2021/08/16 00:19:54;;;;;;;11.45;7.28;;;;;;;21.21;60.22;101555.88;5093544;28;20047;-62
2021/08/16 00:22:19;;;;;;;10.43;7.38;;;;;;;21.21;60.21;101561.22;5092566;28;20036;-62
2021/08/16 00:24:45;;;;;;;11.23;7.95;;;;;;;21.21;60.33;101566.56;5106398;28;20032;-62
2021/08/16 00:27:10;;;;;;;11.68;7.68;;;;;;;21.20;60.73;101567.56;5102125;28;20038;-62
2021/08/16 00:29:36;;;;;;;10.27;7.03;;;;;;;21.19;60.24;101563.25;5112228;28;20040;-62
2021/08/16 00:32:02;;;;;;;11.77;7.57;;;;;;;21.22;60.60;101567.38;5101079;28;20379;-62
2021/08/16 00:34:27;;;;;;;11.68;7.93;;;;;;;21.21;60.47;101571.88;5100212;28;20055;-62
2021/08/16 00:36:53;;;;;;;12.38;8.30;;;;;;;21.19;60.39;101565.91;5108743;28;20032;-62
2021/08/16 00:39:18;;;;;;;14.50;8.98;;;;;;;21.20;60.38;101564.91;5106829;28;20043;-62
2021/08/16 00:41:46;;;;;;;11.75;8.10;;;;;;;21.19;60.27;101563.25;5107675;28;20027;-62
2021/08/16 00:44:12;;;;;;;13.20;7.57;;;;;;;21.21;60.45;101565.72;5108567;28;20098;-62
2021/08/16 00:46:38;;;;;;;13.68;8.45;;;;;;;21.20;60.21;101559.56;5105410;28;20456;-63
2021/08/16 00:49:03;;;;;;;12.63;8.02;;;;;;;21.20;60.22;101561.41;5099323;28;20046;-63
2021/08/16 00:51:31;;;;;;;12.65;8.15;;;;;;;21.19;60.63;101565.91;5105282;28;20412;-62
2021/08/16 00:53:57;;;;;;;14.13;8.63;;;;;;;21.20;60.80;101564.06;5094489;28;20040;-62
2021/08/16 00:56:26;;;;;;;11.55;8.93;;;;;;;21.20;60.72;101556.06;5106437;28;20036;-62
2021/08/16 00:59:00;;;;;;;11.98;7.80;;;;;;;21.20;60.35;101564.06;5094515;28;20039;-62
2021/08/16 01:01:26;;;;;;;13.60;8.83;;;;;;;21.19;60.85;101567.75;5084994;28;20467;-62
2021/08/16 01:03:52;;;;;;;14.60;8.93;;;;;;;21.20;60.53;101574.75;5093751;28;20297;-62
2021/08/16 01:06:18;;;;;;;12.18;8.30;;;;;;;21.20;60.59;101577.41;5075260;28;20082;-62
2021/08/16 01:08:50;;;;;;;15.75;8.90;;;;;;;21.19;60.86;101591.78;5105741;28;20031;-62
2021/08/16 01:11:17;;;;;;;13.60;8.70;;;;;;;21.20;60.87;101593.44;5099013;28;20035;-62
2021/08/16 01:13:43;;;;;;;12.73;8.68;;;;;;;21.19;60.61;101597.94;5113869;28;20624;-62
2021/08/16 01:16:09;;;;;;;12.80;8.43;;;;;;;21.20;60.88;101590.75;5092009;28;20067;-62
2021/08/16 01:18:35;;;;;;;13.45;8.85;;;;;;;21.20;60.86;101582.75;5101546;28;20062;-62
2021/08/16 01:21:04;;;;;;;12.77;8.85;;;;;;;21.20;60.49;101593.44;5113359;28;20039;-62
2021/08/16 01:23:29;;;;;;;11.70;8.98;;;;;;;21.20;60.69;101586.25;5092850;28;20115;-62
2021/08/16 01:25:55;;;;;;;14.23;9.55;;;;;;;21.19;60.57;101595.25;5074819;28;20418;-62
2021/08/16 01:28:22;;;;;;;13.05;8.88;;;;;;;21.19;60.90;101591.78;5073964;28;20535;-62
2021/08/16 01:30:51;;;;;;;15.27;8.75;;;;;;;21.18;60.67;101595.47;5103680;28;20682;-62
2021/08/16 01:33:17;;;;;;;13.45;9.35;;;;;;;21.19;60.73;101602.44;5090144;28;20031;-62
2021/08/16 01:35:42;;;;;;;12.40;8.52;;;;;;;21.19;60.64;101600.59;5101849;28;20441;-62
2021/08/16 01:38:08;;;;;;;12.45;8.52;;;;;;;21.19;61.02;101589.09;5108323;28;20028;-62
2021/08/16 01:40:34;;;;;;;13.50;9.00;;;;;;;21.18;60.71;101574.94;5098076;28;20035;-62
2021/08/16 01:43:00;;;;;;;13.93;9.00;;;;;;;21.18;60.86;101574.13;5103171;28;20024;-62
2021/08/16 01:45:25;;;;;;;12.15;8.70;;;;;;;21.19;61.03;101573.91;5092529;28;20085;-62
2021/08/16 01:47:51;;;;;;;14.20;9.43;;;;;;;21.18;60.92;101571.44;5099880;28;20047;-62
2021/08/16 01:50:16;;;;;;;11.90;8.52;;;;;;;21.19;60.90;101578.44;5099208;28;20150;-62
2021/08/16 01:52:42;;;;;;;12.93;8.75;;;;;;;21.18;60.90;101582.94;5106631;28;20066;-62
2021/08/16 01:55:08;;;;;;;11.77;7.68;;;;;;;21.18;60.55;101587.44;5092034;28;20038;-64
2021/08/16 01:57:34;;;;;;;11.90;8.50;;;;;;;21.19;60.56;101594.44;5110293;28;20055;-62
2021/08/16 02:00:00;;;;;;;11.68;8.85;;;;;;;21.18;60.65;101598.94;5103842;28;20109;-62
2021/08/16 02:02:25;;;;;;;13.45;9.32;;;;;;;21.17;61.08;101591.13;5075676;28;20041;-62
2021/08/16 02:04:51;;;;;;;13.18;9.15;;;;;;;21.18;60.71;101595.47;5099980;28;20115;-62
2021/08/16 02:07:16;;;;;;;14.55;8.93;;;;;;;21.18;60.72;101603.47;5113012;28;20040;-62
2021/08/16 02:09:42;;;;;;;12.80;8.68;;;;;;;21.18;60.74;101595.47;5107545;28;20035;-62
2021/08/16 02:12:08;;;;;;;12.98;9.00;;;;;;;21.18;60.66;101592.78;5093246;28;20036;-64
2021/08/16 02:14:34;;;;;;;13.75;8.73;;;;;;;21.17;60.62;101599.97;5110119;28;20054;-62
2021/08/16 02:16:59;;;;;;;13.50;9.38;;;;;;;21.17;60.63;101596.47;5084478;28;20064;-62
2021/08/16 02:19:25;;;;;;;14.82;9.10;;;;;;;21.17;61.11;101599.97;5107320;28;20039;-62
2021/08/16 02:21:50;;;;;;;12.98;8.60;;;;;;;21.16;60.87;101598.31;5113095;28;20531;-62
2021/08/16 02:24:16;;;;;;;14.85;9.52;;;;;;;21.17;60.86;101605.31;5112030;28;20042;-62
2021/08/16 02:26:42;;;;;;;13.15;8.38;;;;;;;21.16;60.70;101614.31;5097384;28;20031;-62
2021/08/16 02:29:09;;;;;;;12.70;8.30;;;;;;;21.16;60.65;101617.00;5112774;28;20344;-62
2021/08/16 02:31:35;;;;;;;12.98;8.68;;;;;;;21.16;61.06;101617.00;5112061;28;20050;-63
2021/08/16 02:34:01;;;;;;;15.68;9.60;;;;;;;21.17;60.95;101623.97;5103053;28;20052;-62
2021/08/16 02:36:26;;;;;;;14.32;8.70;;;;;;;21.17;60.85;101615.16;5091533;28;20050;-62
2021/08/16 02:38:52;;;;;;;13.60;8.70;;;;;;;21.16;60.75;101622.34;5087693;28;20043;-62
2021/08/16 02:41:17;;;;;;;14.20;9.40;;;;;;;21.16;60.99;101627.66;5100883;28;20067;-62
2021/08/16 02:43:43;;;;;;;12.07;8.45;;;;;;;21.16;61.13;101634.84;5079073;28;20036;-62
2021/08/16 02:46:08;;;;;;;15.20;8.90;;;;;;;21.17;60.77;101631.16;5104785;28;20423;-62
2021/08/16 02:48:34;;;;;;;12.55;8.65;;;;;;;21.17;60.76;101634.66;5104585;28;20036;-62
2021/08/16 02:50:59;;;;;;;12.55;8.05;;;;;;;21.17;61.08;101639.16;5072820;28;20389;-62
2021/08/16 02:53:25;;;;;;;12.95;8.45;;;;;;;21.17;61.14;101636.50;5091687;28;20062;-62
2021/08/16 02:55:50;;;;;;;13.95;8.57;;;;;;;21.16;61.11;101637.50;5090732;28;20024;-62
2021/08/16 02:58:16;;;;;;;12.48;7.80;;;;;;;21.16;61.20;101632.19;5072793;28;20475;-62
2021/08/16 03:00:42;;;;;;;13.65;8.88;;;;;;;21.17;60.74;101636.50;5101309;28;20385;-62
2021/08/16 03:03:07;;;;;;;13.25;8.75;;;;;;;21.16;61.24;101627.66;5094653;28;20039;-62
2021/08/16 03:05:33;;;;;;;11.30;7.70;;;;;;;21.15;60.81;101626.00;5098140;28;20028;-62
2021/08/16 03:07:58;;;;;;;12.60;8.13;;;;;;;21.16;61.11;101626.84;5073869;28;20471;-62
2021/08/16 03:10:24;;;;;;;12.63;8.43;;;;;;;21.15;60.79;101628.69;5100243;28;20036;-62
2021/08/16 03:12:49;;;;;;;10.88;7.60;;;;;;;21.15;60.93;101633.19;5101980;28;20035;-62
2021/08/16 03:15:15;;;;;;;12.75;8.38;;;;;;;21.15;61.06;101641.19;5102009;28;20081;-62
2021/08/16 03:17:41;;;;;;;10.48;7.55;;;;;;;21.15;60.94;101635.84;5101505;28;20530;-62
2021/08/16 03:20:07;;;;;;;11.50;8.30;;;;;;;21.15;60.90;101631.34;5091294;28;20035;-62
2021/08/16 03:22:33;;;;;;;11.55;8.25;;;;;;;21.15;60.57;101641.19;5100511;28;20040;-62
2021/08/16 03:24:58;;;;;;;13.10;7.65;;;;;;;21.15;61.04;101638.53;5092626;28;20030;-62
2021/08/16 03:27:24;;;;;;;12.00;8.18;;;;;;;21.14;60.70;101631.50;5107253;28;20035;-62
2021/08/16 03:29:49;;;;;;;9.48;7.35;;;;;;;21.13;61.00;101638.69;5095781;28;20506;-62
2021/08/16 03:32:15;;;;;;;11.88;8.38;;;;;;;21.14;60.68;101639.50;5099645;28;20040;-62
2021/08/16 03:34:41;;;;;;;10.38;7.50;;;;;;;21.15;60.91;101638.53;5092125;28;20032;-62
2021/08/16 03:37:06;;;;;;;10.90;7.97;;;;;;;21.13;60.71;101643.19;5107809;28;20046;-62
2021/08/16 03:39:32;;;;;;;11.65;8.05;;;;;;;21.13;60.60;101643.19;5106166;28;20753;-62
2021/08/16 03:41:58;;;;;;;10.07;7.40;;;;;;;21.13;61.00;101641.34;5094829;28;20066;-62
2021/08/16 03:44:23;;;;;;;12.15;7.65;;;;;;;21.13;60.93;101640.53;5101842;28;20043;-62
2021/08/16 03:46:48;;;;;;;10.48;7.63;;;;;;;21.13;61.06;101646.69;5101503;28;20047;-62
2021/08/16 03:49:14;;;;;;;11.15;7.72;;;;;;;21.13;60.80;101644.03;5099901;28;20036;-62
2021/08/16 03:51:39;;;;;;;12.07;8.43;;;;;;;21.13;61.09;101653.88;5115956;28;20038;-62
2021/08/16 03:54:05;;;;;;;13.65;7.57;;;;;;;21.13;61.06;101652.03;5108131;28;20473;-62
2021/08/16 03:56:30;;;;;;;10.20;6.88;;;;;;;21.12;60.69;101654.88;5102178;28;20043;-62
2021/08/16 03:58:56;;;;;;;11.45;7.50;;;;;;;21.12;60.76;101657.56;5107005;28;20087;-62
2021/08/16 04:01:21;;;;;;;10.10;7.40;;;;;;;21.12;60.88;101657.56;5099469;28;20054;-62
2021/08/16 04:03:47;;;;;;;11.20;7.53;;;;;;;21.12;61.26;101658.38;5099860;28;20041;-62
2021/08/16 04:06:13;;;;;;;10.32;7.28;;;;;;;21.12;61.25;101654.88;5111562;28;20047;-62
2021/08/16 04:08:40;;;;;;;10.07;6.93;;;;;;;21.11;61.09;101650.56;5099214;28;20041;-62
2021/08/16 04:11:08;;;;;;;10.02;7.43;;;;;;;21.12;61.02;101657.56;5114258;28;20429;-62
2021/08/16 04:13:34;;;;;;;10.82;7.75;;;;;;;21.11;60.61;101659.41;5099575;28;20032;-62
2021/08/16 04:15:59;;;;;;;9.60;7.22;;;;;;;21.11;61.09;101658.56;5088205;28;20049;-62
2021/08/16 04:18:25;;;;;;;9.80;6.63;;;;;;;21.11;61.05;101656.72;5093261;28;20032;-62
2021/08/16 04:20:50;;;;;;;9.50;7.18;;;;;;;21.11;60.93;101661.25;5093542;28;20035;-62
2021/08/16 04:23:16;;;;;;;9.32;6.85;;;;;;;21.10;61.03;101667.59;5103967;28;20110;-62
2021/08/16 04:25:42;;;;;;;10.50;6.78;;;;;;;21.11;60.90;101666.56;5096305;28;20039;-62
2021/08/16 04:28:08;;;;;;;9.32;7.00;;;;;;;21.09;60.55;101657.94;5102905;28;20387;-62
2021/08/16 04:30:34;;;;;;;12.45;7.85;;;;;;;21.10;60.61;101663.06;5089303;28;20052;-62
2021/08/16 04:32:59;;;;;;;9.75;6.53;;;;;;;21.10;60.95;101665.75;5075756;28;20043;-62
2021/08/16 04:35:25;;;;;;;8.98;6.57;;;;;;;21.10;60.87;101663.06;5062583;28;20753;-62
2021/08/16 04:37:50;;;;;;;9.65;6.43;;;;;;;21.09;60.52;101661.44;5055781;28;20640;-62
2021/08/16 04:40:16;;;;;;;9.82;6.78;;;;;;;21.09;60.82;101669.44;5072571;28;20467;-64
2021/08/16 04:42:42;;;;;;;10.55;6.78;;;;;;;21.09;60.83;101669.44;5090327;28;20064;-62
2021/08/16 04:45:10;;;;;;;8.82;5.97;;;;;;;21.10;60.72;101678.25;5093900;28;20129;-62
2021/08/16 04:47:36;;;;;;;9.80;6.65;;;;;;;21.10;60.64;101675.59;5076490;28;20781;-62
2021/08/16 04:50:05;;;;;;;11.45;7.32;;;;;;;21.09;60.65;101690.78;5055251;28;20086;-62
2021/08/16 04:52:31;;;;;;;11.48;6.95;;;;;;;21.09;60.77;101689.94;5068947;28;20126;-62
2021/08/16 04:54:56;;;;;;;8.85;6.38;;;;;;;21.09;60.55;101697.94;5072363;28;20128;-62
2021/08/16 04:57:32;;;;;;;9.20;6.38;;;;;;;21.08;60.81;101704.31;5083924;28;20031;-63
2021/08/16 04:59:58;;;;;;;10.30;6.72;;;;;;;21.09;60.47;101712.13;5075017;28;20043;-62
2021/08/16 05:02:23;;;;;;;8.65;6.18;;;;;;;21.08;60.63;101712.31;5072432;28;20467;-62
2021/08/16 05:04:53;;;;;;;8.93;6.03;;;;;;;21.09;60.52;101713.97;5058701;28;20032;-62
2021/08/16 05:07:19;;;;;;;8.65;6.35;;;;;;;21.10;60.84;101710.28;5073317;28;20033;-63
2021/08/16 05:09:45;;;;;;;8.70;6.20;;;;;;;21.08;60.51;101702.47;5077027;28;20037;-62
2021/08/16 05:12:10;;;;;;;9.45;6.43;;;;;;;21.09;60.56;101700.63;5073806;28;20047;-62
2021/08/16 05:14:36;;;;;;;8.15;6.03;;;;;;;21.07;60.90;101697.31;5077126;28;20067;-62
2021/08/16 05:17:01;;;;;;;9.60;6.53;;;;;;;21.09;60.83;101703.28;5077422;28;20036;-62
2021/08/16 05:19:27;;;;;;;9.57;6.47;;;;;;;21.08;60.38;101704.31;5057520;28;20234;-62
2021/08/16 05:21:52;;;;;;;8.73;5.97;;;;;;;21.08;60.77;101698.97;5073380;28;20056;-62
2021/08/16 05:24:18;;;;;;;8.23;6.20;;;;;;;21.07;60.58;101698.13;5077285;28;20462;-62
2021/08/16 05:26:43;;;;;;;7.80;5.53;;;;;;;21.07;60.78;101698.13;5076541;28;20033;-62
2021/08/16 05:29:09;;;;;;;9.40;6.32;;;;;;;21.07;60.55;101697.31;5061232;28;20029;-63
2021/08/16 05:31:34;;;;;;;9.80;6.22;;;;;;;21.07;60.63;101699.97;5097973;28;20758;-63
2021/08/16 05:34:00;;;;;;;9.02;6.22;;;;;;;21.06;60.69;101701.81;5099331;28;20032;-62
2021/08/16 05:36:25;;;;;;;9.07;6.38;;;;;;;21.06;60.32;101698.31;5103769;28;20501;-63
2021/08/16 05:38:51;;;;;;;8.65;6.22;;;;;;;21.05;60.27;101694.00;5093329;28;20356;-62
2021/08/16 05:41:16;;;;;;;8.18;5.60;;;;;;;21.04;60.47;101703.84;5084591;28;20445;-62
2021/08/16 05:43:42;;;;;;;8.40;6.03;;;;;;;21.05;60.43;101704.66;5106763;28;20028;-62
2021/08/16 05:46:07;;;;;;;9.85;6.20;;;;;;;21.05;60.68;101699.34;5089052;28;20071;-62
2021/08/16 05:48:33;;;;;;;9.55;5.93;;;;;;;21.05;60.37;101710.00;5096931;28;20458;-62
2021/08/16 05:50:58;;;;;;;8.20;5.90;;;;;;;21.04;60.50;101701.19;5099419;28;20521;-62
2021/08/16 05:53:26;;;;;;;7.82;5.75;;;;;;;21.04;60.65;101698.50;5097163;28;20043;-62
2021/08/16 05:55:52;;;;;;;7.75;5.22;;;;;;;21.05;60.58;101704.66;5089421;28;20035;-64
2021/08/16 05:58:18;;;;;;;9.23;6.32;;;;;;;21.04;60.57;101703.03;5113002;28;20331;-62
2021/08/16 06:00:44;;;;;;;7.90;5.90;;;;;;;21.04;60.42;101709.19;5101332;28;20020;-62
2021/08/16 06:03:09;;;;;;;7.80;5.63;;;;;;;21.03;60.32;101707.53;5097828;28;20039;-62
2021/08/16 06:05:35;;;;;;;8.60;6.15;;;;;;;21.05;60.70;101710.84;5099241;28;20032;-62
2021/08/16 06:08:00;;;;;;;8.40;5.75;;;;;;;21.03;60.65;101704.88;5103439;28;20032;-63
2021/08/16 06:10:25;;;;;;;8.75;5.53;;;;;;;21.03;60.61;101712.03;5066802;28;20467;-62
2021/08/16 06:12:51;;;;;;;7.63;5.47;;;;;;;21.04;60.57;101716.34;5103825;28;20494;-62
2021/08/16 06:15:16;;;;;;;8.70;5.80;;;;;;;21.04;60.62;101721.69;5096645;28;20063;-63
2021/08/16 06:17:42;;;;;;;8.60;5.65;;;;;;;21.03;60.19;101728.03;5095745;28;20040;-62
2021/08/16 06:20:10;;;;;;;7.18;5.43;;;;;;;21.03;60.40;101734.22;5092335;28;20564;-62
2021/08/16 06:22:37;;;;;;;7.63;5.65;;;;;;;21.03;60.45;101738.72;5098651;28;20072;-62
2021/08/16 06:25:03;;;;;;;7.68;5.40;;;;;;;21.02;60.38;101734.41;5096917;28;20035;-63
2021/08/16 06:27:28;;;;;;;8.32;5.55;;;;;;;21.01;60.45;101736.22;5098223;28;20093;-63
2021/08/16 06:29:54;;;;;;;7.75;5.80;;;;;;;21.02;60.58;101748.56;5083368;28;20356;-63
2021/08/16 06:32:20;;;;;;;8.73;5.22;;;;;;;21.02;60.50;101745.06;5091299;28;20128;-63
2021/08/16 06:34:45;;;;;;;9.05;5.63;;;;;;;21.02;60.47;101742.41;5097978;28;20530;-63
2021/08/16 06:37:11;;;;;;;8.57;5.80;;;;;;;21.02;60.23;101756.56;5101842;28;20066;-63
2021/08/16 06:39:36;;;;;;;7.55;5.03;;;;;;;21.00;60.34;101750.59;5098740;28;20089;-63
2021/08/16 06:42:02;;;;;;;7.90;5.00;;;;;;;21.02;60.39;101758.41;5101447;28;20062;-63
2021/08/16 06:44:30;;;;;;;6.95;5.13;;;;;;;21.01;60.41;101741.56;5097790;28;20031;-63
2021/08/16 06:46:55;;;;;;;8.10;5.95;;;;;;;21.02;60.35;101750.41;5099458;28;20087;-62
2021/08/16 06:49:21;;;;;;;6.35;5.20;;;;;;;21.02;60.35;101753.06;5096884;28;20070;-63
2021/08/16 06:51:47;;;;;;;7.38;5.40;;;;;;;21.01;60.36;101759.41;5098051;28;20036;-63
2021/08/16 06:54:12;;;;;;;8.23;5.65;;;;;;;21.01;60.25;101760.25;5101236;28;20513;-63
2021/08/16 06:56:38;;;;;;;6.80;4.85;;;;;;;21.02;60.09;101769.06;5098696;28;20031;-63
2021/08/16 06:59:03;;;;;;;7.82;5.60;;;;;;;21.02;60.29;101779.75;5101255;28;20035;-63
2021/08/16 07:01:29;;;;;;;7.70;5.10;;;;;;;21.02;60.48;101774.41;5090843;28;20081;-63
2021/08/16 07:03:56;;;;;;;7.97;5.32;;;;;;;21.02;60.39;101769.06;5078075;28;20020;-63
2021/08/16 07:06:22;;;;;;;7.68;5.10;;;;;;;21.01;60.10;101778.09;5095162;28;20107;-63
2021/08/16 07:08:49;;;;;;;7.00;5.55;;;;;;;21.02;60.51;101785.06;5102092;28;20120;-63
2021/08/16 07:11:15;;;;;;;6.70;4.78;;;;;;;21.01;60.09;101786.09;5110893;28;20065;-63
2021/08/16 07:13:40;;;;;;;8.18;4.80;;;;;;;21.01;60.10;101797.59;5114145;28;20028;-63
2021/08/16 07:16:06;;;;;;;8.93;4.95;;;;;;;21.01;60.71;101794.09;5096152;28;20157;-63
2021/08/16 07:18:35;;;;;;;6.78;4.82;;;;;;;21.00;60.86;101801.28;5093533;28;20040;-63
2021/08/16 07:21:02;;;;;;;6.95;4.90;;;;;;;21.02;60.84;101803.75;5101336;28;20127;-63
2021/08/16 07:23:28;;;;;;;6.25;4.55;;;;;;;21.02;61.27;101817.09;5094345;28;20036;-63
2021/08/16 07:25:58;;;;;;;8.23;5.10;;;;;;;21.02;61.19;101817.09;5101224;28;20035;-63
2021/08/16 07:28:25;;;;;;;6.97;5.05;;;;;;;21.02;61.58;101825.91;5100197;28;20036;-63
2021/08/16 07:30:50;;;;;;;8.15;4.90;;;;;;;21.03;62.20;101819.56;5107340;28;20048;-63
2021/08/16 07:33:16;;;;;;;8.15;5.13;;;;;;;21.04;62.10;101823.06;5098325;28;20035;-63
2021/08/16 07:35:41;;;;;;;6.30;4.38;;;;;;;21.03;62.45;101822.25;5073213;28;20058;-63
2021/08/16 07:38:07;;;;;;;9.77;4.80;;;;;;;21.04;62.67;101823.91;5057859;28;20036;-63
2021/08/16 07:40:32;;;;;;;6.35;4.30;;;;;;;21.06;62.58;101829.03;5090553;28;20423;-63
2021/08/16 07:42:58;;;;;;;7.93;4.38;;;;;;;21.05;62.79;101828.22;5109435;28;20031;-62
2021/08/16 07:45:23;;;;;;;9.23;4.55;;;;;;;21.05;62.81;101832.72;5077714;28;20447;-63
2021/08/16 07:47:51;;;;;;;11.65;5.28;;;;;;;21.05;62.80;101838.06;5102469;28;20364;-64
2021/08/16 07:50:17;;;;;;;8.82;4.10;;;;;;;21.06;63.45;101834.38;5071306;28;20344;-64
2021/08/16 07:52:43;;;;;;;9.00;5.13;;;;;;;21.05;63.48;101841.56;5103088;28;20048;-63
2021/08/16 07:55:10;;;;;;;8.13;4.55;;;;;;;21.05;63.23;101838.06;5100000;28;20437;-64
2021/08/16 07:57:36;;;;;;;8.57;4.30;;;;;;;21.05;63.43;101832.72;5091453;28;20534;-64
2021/08/16 08:00:04;;;;;;;9.68;4.05;;;;;;;21.05;63.15;101838.06;5091639;28;20494;-64
2021/08/16 08:02:49;;;;;;;7.78;4.07;;;;;;;21.02;63.32;101841.09;5079549;28;20024;-64
2021/08/16 08:05:20;;;;;;;7.35;4.05;;;;;;;21.03;62.93;101838.25;5094979;28;20031;-64
2021/08/16 08:07:46;;;;;;;7.13;3.47;;;;;;;21.03;62.66;101842.75;5109735;28;20732;-64
2021/08/16 08:10:13;;;;;;;10.55;4.07;;;;;;;21.01;62.34;101842.94;5105126;28;20376;-65
2021/08/16 08:12:40;;;;;;;4.95;3.00;;;;;;;20.97;61.88;101841.63;5056796;28;20125;-65
2021/08/16 08:15:07;;;;;;;6.55;3.22;;;;;;;20.93;61.96;101843.81;5091923;28;20043;-64
2021/08/16 08:17:33;;;;;;;8.48;3.67;;;;;;;20.94;61.79;101852.66;5114129;28;20142;-65
2021/08/16 08:19:58;;;;;;;9.05;3.83;;;;;;;20.91;61.55;101850.34;5103089;28;20068;-64
2021/08/16 08:22:24;;;;;;;8.98;4.53;;;;;;;20.89;61.17;101847.88;5094160;28;20562;-64
2021/08/16 08:24:51;;;;;;;9.60;3.53;;;;;;;20.87;61.26;101846.41;5096832;28;20482;-64
2021/08/16 08:27:17;;;;;;;8.35;3.70;;;;;;;20.83;61.13;101851.28;5097697;28;20046;-64
2021/08/16 08:29:43;;;;;;;9.40;4.05;;;;;;;20.82;60.97;101848.75;5097242;28;20032;-65
2021/08/16 08:32:08;;;;;;;8.77;3.28;;;;;;;20.80;60.70;101848.94;5073661;28;20456;-64
2021/08/16 08:34:34;;;;;;;8.45;3.10;;;;;;;20.78;60.68;101847.47;5088122;28;20466;-64
2021/08/16 08:37:00;;;;;;;8.77;3.63;;;;;;;20.78;60.36;101858.97;5087316;28;20039;-65
2021/08/16 08:39:26;;;;;;;8.95;4.00;;;;;;;20.77;60.46;101862.63;5081782;28;20041;-64
2021/08/16 08:41:57;;;;;;;12.65;3.38;;;;;;;20.76;59.94;101866.31;5081233;28;20093;-65
2021/08/16 08:44:24;;;;;;;10.77;3.83;;;;;;;20.77;60.08;101875.13;5074111;28;20423;-64
2021/08/16 08:46:50;;;;;;;6.78;2.90;;;;;;;20.76;59.70;101874.31;5081871;28;20037;-65
2021/08/16 08:49:15;;;;;;;5.80;3.05;;;;;;;20.74;59.64;101876.34;5083339;28;20032;-64
2021/08/16 08:51:42;;;;;;;8.77;3.17;;;;;;;20.72;59.35;101873.00;5077844;28;20032;-64
2021/08/16 08:54:08;;;;;;;7.07;2.70;;;;;;;20.72;59.50;101880.19;5086746;28;20036;-64
2021/08/16 08:56:34;;;;;;;7.22;3.15;;;;;;;20.71;59.15;101876.69;5071851;28;20050;-64
2021/08/16 08:59:00;;;;;;;6.10;2.67;;;;;;;20.71;59.19;101879.34;5083684;28;20136;-64
2021/08/16 09:01:27;;;;;;;5.63;2.83;;;;;;;20.70;58.79;101883.03;5072884;28;20142;-64
2021/08/16 09:03:54;;;;;;;8.35;3.30;;;;;;;20.69;58.89;101883.22;5072551;28;20078;-64
2021/08/16 09:06:34;;;;;;;6.10;3.10;;;;;;;20.64;58.64;101879.22;5067894;28;20039;-64
2021/08/16 09:09:00;;;;;;;8.88;2.75;;;;;;;20.66;58.34;101883.53;5074049;28;20035;-64
2021/08/16 09:11:28;;;;;;;7.13;3.13;;;;;;;20.64;58.51;101886.41;5072682;28;20723;-64
2021/08/16 09:13:59;;;;;;;5.35;2.33;;;;;;;20.63;58.71;101890.06;5062594;28;20340;-64
2021/08/16 09:16:26;;;;;;;6.82;2.85;;;;;;;20.64;58.40;101887.22;5077202;28;20028;-64
2021/08/16 09:18:52;;;;;;;6.38;2.63;;;;;;;20.64;58.38;101889.06;5076649;28;20108;-64
2021/08/16 09:21:34;;;;;;;9.93;3.00;;;;;;;20.63;58.16;101884.75;5076863;28;20043;-65
2021/08/16 09:24:01;;;;;;;6.15;2.50;;;;;;;20.64;58.34;101887.22;5076953;28;20032;-64
2021/08/16 09:26:32;;;;;;;6.55;2.72;;;;;;;20.64;57.95;101881.88;5078391;28;20036;-64
2021/08/16 09:29:28;;;;;;;4.78;2.30;;;;;;;20.59;58.14;101886.09;5073590;28;20025;-64
2021/08/16 09:31:57;;;;;;;6.70;2.80;;;;;;;20.63;58.01;101890.91;5068320;28;20542;-65
2021/08/16 09:34:47;;;;;;;5.90;2.80;;;;;;;20.59;58.20;101894.94;5092248;28;20574;-64
2021/08/16 09:37:25;;;;;;;4.72;2.60;;;;;;;20.63;57.98;101898.91;5079223;28;20465;-64
2021/08/16 09:40:20;;;;;;;6.32;2.42;;;;;;;20.61;57.86;101892.91;5096429;28;20032;-63
2021/08/16 09:42:48;;;;;;;6.03;2.95;;;;;;;20.66;58.15;101900.38;5079330;28;20085;-65
2021/08/16 09:45:27;;;;;;;6.07;2.65;;;;;;;20.68;57.89;101894.88;5098775;28;20491;-63
2021/08/16 09:47:56;;;;;;;5.93;2.55;;;;;;;20.68;58.07;101901.06;5095965;28;20032;-64
2021/08/16 09:50:22;;;;;;;5.68;2.65;;;;;;;20.68;57.63;101900.22;5094831;28;20036;-63
2021/08/16 09:52:48;;;;;;;4.28;2.53;;;;;;;20.67;57.56;101895.88;5092802;28;20070;-63
2021/08/16 09:55:14;;;;;;;4.90;2.30;;;;;;;20.67;57.48;101899.41;5091844;28;20428;-64
2021/08/16 09:57:40;;;;;;;3.80;1.88;;;;;;;20.67;57.79;101904.72;5104911;28;20039;-63
2021/08/16 10:00:07;;;;;;;5.45;2.40;;;;;;;20.68;57.50;101908.22;5092797;28;20036;-64
2021/08/16 10:02:35;;;;;;;6.53;2.28;;;;;;;20.68;57.36;101905.56;5092385;28;20036;-63
2021/08/16 10:05:00;;;;;;;4.78;2.22;;;;;;;20.68;57.43;101909.06;5075325;28;20035;-63
2021/08/16 10:07:30;;;;;;;4.22;1.92;;;;;;;20.69;57.47;101912.53;5096518;28;20036;-64
2021/08/16 10:09:59;;;;;;;5.07;2.13;;;;;;;20.68;57.29;101906.38;5087247;28;20035;-63
2021/08/16 10:12:26;;;;;;;4.65;1.80;;;;;;;20.69;57.15;101910.72;5095970;28;20035;-63
2021/08/16 10:14:53;;;;;;;6.10;2.53;;;;;;;20.70;57.14;101912.38;5095159;28;20035;-63
2021/08/16 10:17:25;;;;;;;4.45;1.77;;;;;;;20.69;57.28;101915.22;5096129;28;20055;-63
2021/08/16 10:19:53;;;;;;;3.92;2.17;;;;;;;20.70;57.27;101916.88;5091395;28;20079;-63
2021/08/16 10:22:18;;;;;;;4.97;2.05;;;;;;;20.70;57.21;101925.69;5092155;28;20048;-64
2021/08/16 10:24:43;;;;;;;4.50;2.10;;;;;;;20.70;56.77;101924.88;5091322;28;20395;-63
2021/08/16 10:27:11;;;;;;;4.07;1.83;;;;;;;20.69;56.75;101924.03;5095859;28;20048;-63
2021/08/16 10:29:39;;;;;;;3.92;1.73;;;;;;;20.69;56.91;101932.03;5057039;28;20032;-64
2021/08/16 10:32:16;;;;;;;4.65;1.88;;;;;;;20.69;56.59;101931.22;5088049;28;20042;-63
2021/08/16 10:34:42;;;;;;;4.82;1.80;;;;;;;20.70;56.84;101931.03;5089838;28;20486;-63
2021/08/16 10:37:15;;;;;;;5.55;2.17;;;;;;;20.71;56.56;101939.84;5092889;28;20039;-63
2021/08/16 10:39:43;;;;;;;4.25;2.05;;;;;;;20.73;56.49;101935.19;5084781;28;20067;-64
2021/08/16 10:42:11;;;;;;;4.30;1.98;;;;;;;20.74;56.42;101923.50;5084466;28;20413;-63
2021/08/16 10:45:00;;;;;;;4.22;1.70;;;;;;;20.69;56.55;101929.38;5082978;28;20077;-63
2021/08/16 10:47:32;;;;;;;4.88;2.10;;;;;;;20.71;56.46;101940.69;5080899;28;20039;-63
2021/08/16 10:50:12;;;;;;;3.80;1.80;;;;;;;20.70;56.38;101948.88;5092283;28;20101;-63
2021/08/16 10:52:41;;;;;;;5.10;1.77;;;;;;;20.74;56.45;101950.16;5080291;28;20032;-63
2021/08/16 10:55:13;;;;;;;3.42;1.83;;;;;;;20.73;56.46;101952.00;5083175;28;20036;-64
2021/08/16 10:57:42;;;;;;;4.32;1.70;;;;;;;20.72;56.20;101958.34;5092228;28;20038;-64
2021/08/16 11:00:11;;;;;;;4.30;1.80;;;;;;;20.71;56.06;101956.69;5094698;28;20035;-64
2021/08/16 11:02:40;;;;;;;3.83;1.80;;;;;;;20.71;56.22;101951.34;5084166;28;20034;-63
2021/08/16 11:05:06;;;;;;;4.68;1.73;;;;;;;20.70;55.99;101957.69;5075761;28;20032;-63
2021/08/16 11:07:32;;;;;;;4.78;1.98;;;;;;;20.70;56.17;101951.53;5086521;28;20044;-64
2021/08/16 11:10:03;;;;;;;3.25;1.92;;;;;;;20.71;55.84;101962.03;5092250;28;20032;-63
2021/08/16 11:12:43;;;;;;;3.53;1.73;;;;;;;20.70;55.92;101951.53;5086808;28;20040;-64
2021/08/16 11:15:17;;;;;;;4.50;2.00;;;;;;;20.71;55.83;101953.19;5069689;28;20066;-63
2021/08/16 11:17:43;;;;;;;4.40;1.93;;;;;;;20.72;56.15;101954.84;5088666;28;20078;-64
2021/08/16 11:20:15;;;;;;;4.47;1.90;;;;;;;20.72;55.91;101953.00;5092032;28;20348;-63